Time;durP1;ratioP1;P1;durP2;ratioP2;P2;SDS_P1;SDS_P2;PMS_P1;PMS_P2;Temp;Humidity;BMP_temperature;BMP_pressure;BME280_temperature;BME280_humidity;BME280_pressure;Samples;Min_cycle;Max_cycle;Signal;HPM_P1;HPM_P2
2022/11/07 00:01:28;;;;;;;;;;;19.90;49.80;;;;;;5066171;28;19916;-58
2022/11/07 00:03:54;;;;;;;;;;;19.90;49.90;;;;;;5052232;28;20385;-57
2022/11/07 00:06:19;;;;;;;;;;;20.00;50.00;;;;;;5080874;28;20256;-59
2022/11/07 00:08:44;;;;;;;;;;;19.90;49.80;;;;;;5066425;28;20494;-58
2022/11/07 00:11:10;;;;;;;;;;;19.90;49.70;;;;;;5083143;28;19908;-58
2022/11/07 00:13:35;;;;;;;;;;;19.90;49.70;;;;;;5066459;28;19961;-59
2022/11/07 00:16:02;;;;;;;;;;;19.80;49.70;;;;;;5059806;28;19923;-59
2022/11/07 00:18:27;;;;;;;;;;;19.80;49.60;;;;;;5068870;28;19908;-59
2022/11/07 00:20:53;;;;;;;;;;;19.80;49.80;;;;;;5082250;28;20042;-59
2022/11/07 00:23:18;;;;;;;;;;;19.80;49.80;;;;;;5064377;28;19991;-59
2022/11/07 00:25:43;;;;;;;;;;;19.80;49.80;;;;;;5084378;28;19928;-59
2022/11/07 00:28:09;;;;;;;;;;;19.80;49.70;;;;;;5083303;28;20507;-59
2022/11/07 00:30:34;;;;;;;;;;;19.80;49.70;;;;;;5063553;28;20054;-59
2022/11/07 00:33:00;;;;;;;;;;;19.80;49.90;;;;;;5079520;28;19912;-59
2022/11/07 00:35:25;;;;;;;;;;;19.80;49.90;;;;;;5064083;28;19924;-59
2022/11/07 00:37:52;;;;;;;;;;;19.80;49.90;;;;;;5079223;28;19920;-59
2022/11/07 00:40:18;;;;;;;;;;;19.70;49.90;;;;;;5065051;28;19920;-59
2022/11/07 00:42:43;;;;;;;;;;;19.70;49.90;;;;;;5084311;28;19916;-59
2022/11/07 00:45:10;;;;;;;;;;;19.70;49.90;;;;;;5069195;28;20313;-59
2022/11/07 00:47:36;;;;;;;;;;;19.70;49.90;;;;;;5068700;28;20359;-59
2022/11/07 00:50:01;;;;;;;;;;;19.70;49.90;;;;;;5062765;28;19924;-59
2022/11/07 00:52:27;;;;;;;;;;;19.70;49.90;;;;;;5083402;28;19945;-59
2022/11/07 00:54:52;;;;;;;;;;;19.70;50.00;;;;;;5051683;28;19912;-59
2022/11/07 00:57:17;;;;;;;;;;;19.70;50.00;;;;;;5066545;28;19954;-59
2022/11/07 00:59:43;;;;;;;;;;;19.70;49.80;;;;;;5062033;28;19913;-59
2022/11/07 01:02:08;;;;;;;;;;;19.70;49.80;;;;;;5083960;28;19916;-59
2022/11/07 01:05:16;;;;;;;;;;;19.60;49.70;;;;;;5047099;28;20420;-59
2022/11/07 01:07:23;;;;;;;;;;;19.60;49.70;;;;;;5068626;28;20598;-59
2022/11/07 01:09:48;;;;;;;;;;;19.60;49.80;;;;;;5083577;28;19924;-59
2022/11/07 01:12:13;;;;;;;;;;;19.60;49.80;;;;;;5084429;28;19920;-59
2022/11/07 01:14:39;;;;;;;;;;;19.60;49.80;;;;;;5067773;28;19916;-59
2022/11/07 01:17:04;;;;;;;;;;;19.60;49.80;;;;;;5066026;28;19975;-59
2022/11/07 01:19:30;;;;;;;;;;;19.60;49.80;;;;;;5070156;28;20383;-59
2022/11/07 01:21:55;;;;;;;;;;;19.60;49.90;;;;;;5084930;28;19912;-58
2022/11/07 01:24:21;;;;;;;;;;;19.50;50.50;;;;;;5086442;28;19961;-59
2022/11/07 01:26:50;;;;;;;;;;;19.50;49.90;;;;;;5070739;28;19947;-59
2022/11/07 01:29:16;;;;;;;;;;;19.50;49.90;;;;;;5084646;28;19920;-59
2022/11/07 01:31:42;;;;;;;;;;;19.50;49.80;;;;;;5070071;28;19916;-59
2022/11/07 01:34:07;;;;;;;;;;;19.50;49.90;;;;;;5087182;28;19916;-59
2022/11/07 01:36:33;;;;;;;;;;;19.50;50.00;;;;;;5069279;28;19912;-59
2022/11/07 01:38:58;;;;;;;;;;;19.40;49.90;;;;;;5054747;28;20026;-59
2022/11/07 01:41:25;;;;;;;;;;;19.40;50.00;;;;;;5067494;28;20011;-59
2022/11/07 01:43:59;;;;;;;;;;;19.40;49.90;;;;;;5063267;28;20429;-59
2022/11/07 01:46:28;;;;;;;;;;;19.40;49.90;;;;;;5085702;28;19913;-59
2022/11/07 01:49:13;;;;;;;;;;;19.50;50.00;;;;;;5085446;28;19920;-59
2022/11/07 01:51:43;;;;;;;;;;;19.40;50.00;;;;;;5087539;28;19916;-59
2022/11/07 01:54:09;;;;;;;;;;;19.40;50.00;;;;;;5066931;28;20379;-59
2022/11/07 01:56:34;;;;;;;;;;;19.40;50.00;;;;;;5084725;28;19923;-59
2022/11/07 01:59:00;;;;;;;;;;;19.40;50.00;;;;;;5086088;28;19912;-59
2022/11/07 02:01:25;;;;;;;;;;;19.40;50.10;;;;;;5068345;28;19916;-59
2022/11/07 02:03:51;;;;;;;;;;;19.30;50.20;;;;;;5085296;28;19923;-59
2022/11/07 02:06:21;;;;;;;;;;;19.30;50.10;;;;;;5065848;28;19913;-59
2022/11/07 02:08:47;;;;;;;;;;;19.30;50.30;;;;;;5068313;28;23029;-59
2022/11/07 02:11:13;;;;;;;;;;;19.30;50.30;;;;;;5053111;28;19920;-59
2022/11/07 02:13:38;;;;;;;;;;;19.30;50.50;;;;;;5086903;28;19916;-59
2022/11/07 02:16:04;;;;;;;;;;;19.30;50.50;;;;;;5086686;28;20468;-59
2022/11/07 02:18:29;;;;;;;;;;;19.30;50.50;;;;;;5069807;28;20284;-58
2022/11/07 02:20:56;;;;;;;;;;;19.20;50.40;;;;;;5064021;28;19934;-58
2022/11/07 02:23:35;;;;;;;;;;;19.20;50.70;;;;;;5052866;28;19916;-59
2022/11/07 02:26:00;;;;;;;;;;;19.20;50.70;;;;;;5063358;28;20864;-59
2022/11/07 02:28:26;;;;;;;;;;;19.20;50.70;;;;;;5084401;28;19947;-59
2022/11/07 02:30:51;;;;;;;;;;;19.30;50.60;;;;;;5070693;28;19916;-59
2022/11/07 02:33:17;;;;;;;;;;;19.50;50.30;;;;;;5082230;28;20010;-59
2022/11/07 02:35:43;;;;;;;;;;;19.80;49.90;;;;;;5051868;28;19916;-59
2022/11/07 02:38:29;;;;;;;;;;;20.00;49.50;;;;;;5052016;28;20510;-59
2022/11/07 02:41:21;;;;;;;;;;;20.30;49.10;;;;;;5066147;28;19924;-59
2022/11/07 02:43:48;;;;;;;;;;;20.50;48.80;;;;;;5080388;28;20226;-59
2022/11/07 02:46:13;;;;;;;;;;;20.60;48.40;;;;;;5054506;28;19923;-59
2022/11/07 02:48:42;;;;;;;;;;;20.70;48.20;;;;;;5065848;28;19916;-59
2022/11/07 02:51:08;;;;;;;;;;;20.80;48.00;;;;;;5054757;28;19926;-59
2022/11/07 02:53:33;;;;;;;;;;;20.80;47.80;;;;;;5068910;28;20359;-59
2022/11/07 02:55:59;;;;;;;;;;;20.90;47.90;;;;;;5052214;28;20332;-59
2022/11/07 02:58:24;;;;;;;;;;;20.90;47.80;;;;;;5067445;28;19912;-59
2022/11/07 03:00:50;;;;;;;;;;;20.90;47.90;;;;;;5083103;28;19965;-59
2022/11/07 03:03:15;;;;;;;;;;;20.80;47.90;;;;;;5086538;28;19917;-59
2022/11/07 03:05:40;;;;;;;;;;;20.80;48.00;;;;;;5066759;28;19916;-59
2022/11/07 03:08:06;;;;;;;;;;;20.70;48.00;;;;;;5085542;28;20355;-59
2022/11/07 03:10:31;;;;;;;;;;;20.70;48.20;;;;;;5082746;28;20366;-59
2022/11/07 03:12:57;;;;;;;;;;;20.70;48.20;;;;;;5082042;28;19990;-59
2022/11/07 03:15:22;;;;;;;;;;;20.60;48.30;;;;;;5068522;28;20345;-60
2022/11/07 03:17:48;;;;;;;;;;;20.60;48.40;;;;;;5068496;28;19916;-59
2022/11/07 03:20:13;;;;;;;;;;;20.50;48.40;;;;;;5084287;28;19924;-59
2022/11/07 03:22:39;;;;;;;;;;;20.50;48.50;;;;;;5048047;28;19912;-59
2022/11/07 03:25:04;;;;;;;;;;;20.40;48.50;;;;;;5086102;28;19916;-59
2022/11/07 03:27:30;;;;;;;;;;;20.30;48.70;;;;;;5066602;28;19923;-59
2022/11/07 03:29:55;;;;;;;;;;;20.30;48.90;;;;;;5063289;28;20074;-59
2022/11/07 03:32:21;;;;;;;;;;;20.20;48.90;;;;;;5065455;28;20192;-59
2022/11/07 03:34:47;;;;;;;;;;;20.20;49.00;;;;;;5066479;28;19912;-59
2022/11/07 03:37:13;;;;;;;;;;;20.10;49.00;;;;;;5084343;28;19912;-59
2022/11/07 03:39:38;;;;;;;;;;;20.10;49.00;;;;;;5066292;28;20382;-59
2022/11/07 03:42:04;;;;;;;;;;;20.10;49.20;;;;;;5080149;28;20022;-59
2022/11/07 03:44:29;;;;;;;;;;;20.00;49.30;;;;;;5083755;28;20343;-58
2022/11/07 03:46:55;;;;;;;;;;;20.00;49.40;;;;;;5067007;28;20341;-59
2022/11/07 03:49:20;;;;;;;;;;;19.90;49.30;;;;;;5084181;28;20378;-59
2022/11/07 03:51:45;;;;;;;;;;;19.90;49.40;;;;;;5047430;28;20321;-59
2022/11/07 03:54:11;;;;;;;;;;;19.90;49.50;;;;;;5065240;28;20014;-59
2022/11/07 03:56:36;;;;;;;;;;;19.90;49.50;;;;;;5065464;28;19912;-59
2022/11/07 03:59:02;;;;;;;;;;;19.90;49.70;;;;;;5065062;28;19916;-59
2022/11/07 04:01:27;;;;;;;;;;;19.80;49.60;;;;;;5085567;28;19922;-59
2022/11/07 04:03:53;;;;;;;;;;;19.80;49.60;;;;;;5067035;28;19962;-59
2022/11/07 04:06:18;;;;;;;;;;;19.80;49.80;;;;;;5081828;28;19916;-59
2022/11/07 04:08:44;;;;;;;;;;;19.70;49.80;;;;;;5065932;28;19973;-59
2022/11/07 04:17:17;;;;;;;;;;;19.70;49.80;;;;;;5050621;28;19919;-59
2022/11/07 04:19:25;;;;;;;;;;;19.70;50.00;;;;;;5083005;28;20029;-59
2022/11/07 04:21:51;;;;;;;;;;;19.70;50.00;;;;;;5065719;28;20041;-59
2022/11/07 04:24:16;;;;;;;;;;;19.70;50.00;;;;;;5081236;28;19916;-59
2022/11/07 04:29:26;;;;;;;;;;;19.70;50.00;;;;;;5083348;28;19927;-59
2022/11/07 04:31:51;;;;;;;;;;;19.70;50.00;;;;;;5080053;28;19924;-59
2022/11/07 04:34:17;;;;;;;;;;;19.70;50.10;;;;;;5065419;28;19916;-59
2022/11/07 04:36:42;;;;;;;;;;;19.70;50.20;;;;;;5082347;28;19922;-59
2022/11/07 04:39:08;;;;;;;;;;;19.70;50.30;;;;;;5061042;28;20429;-59
2022/11/07 04:41:33;;;;;;;;;;;19.60;50.20;;;;;;5066206;28;20286;-59
2022/11/07 04:43:58;;;;;;;;;;;19.60;50.30;;;;;;5066605;28;20322;-59
2022/11/07 04:46:24;;;;;;;;;;;19.60;50.30;;;;;;5083900;28;19998;-59
2022/11/07 04:48:49;;;;;;;;;;;19.60;50.40;;;;;;5067504;28;19922;-59
2022/11/07 04:51:15;;;;;;;;;;;19.50;50.40;;;;;;5083114;28;19916;-59
2022/11/07 04:53:41;;;;;;;;;;;19.50;50.50;;;;;;5062308;28;19919;-59
2022/11/07 04:56:06;;;;;;;;;;;19.50;50.50;;;;;;5063277;28;19913;-59
2022/11/07 04:58:31;;;;;;;;;;;19.50;50.50;;;;;;5061710;28;19966;-59
2022/11/07 05:00:57;;;;;;;;;;;19.50;50.60;;;;;;5082865;28;19984;-59
2022/11/07 05:03:22;;;;;;;;;;;19.50;50.60;;;;;;5066440;28;20388;-59
2022/11/07 05:05:48;;;;;;;;;;;19.50;50.50;;;;;;5063505;28;19916;-59
2022/11/07 05:08:13;;;;;;;;;;;19.50;50.60;;;;;;5082642;28;20002;-59
2022/11/07 05:10:39;;;;;;;;;;;19.40;50.70;;;;;;5067973;28;19948;-59
2022/11/07 05:13:04;;;;;;;;;;;19.40;50.70;;;;;;5079392;28;20359;-59
2022/11/07 05:15:30;;;;;;;;;;;19.40;50.80;;;;;;5081046;28;19913;-58
2022/11/07 05:17:55;;;;;;;;;;;19.40;50.80;;;;;;5061206;28;19920;-59
2022/11/07 05:20:25;;;;;;;;;;;19.40;50.90;;;;;;5084012;28;20012;-59
2022/11/07 05:25:34;;;;;;;;;;;19.40;51.00;;;;;;5081153;28;19919;-59
2022/11/07 05:28:00;;;;;;;;;;;19.40;51.00;;;;;;5083500;28;20042;-59
2022/11/07 05:30:25;;;;;;;;;;;19.30;51.10;;;;;;5085085;28;19920;-59
2022/11/07 05:32:51;;;;;;;;;;;19.30;51.00;;;;;;5082675;28;19912;-59
2022/11/07 05:35:16;;;;;;;;;;;19.30;51.00;;;;;;5081804;28;19928;-59
2022/11/07 05:37:42;;;;;;;;;;;19.30;51.10;;;;;;5080225;28;19924;-59
2022/11/07 05:40:08;;;;;;;;;;;19.40;51.20;;;;;;5078933;28;20761;-59
2022/11/07 05:42:33;;;;;;;;;;;19.30;51.20;;;;;;5064491;28;20414;-59
2022/11/07 05:44:58;;;;;;;;;;;19.30;51.10;;;;;;5077041;28;19912;-59
2022/11/07 05:47:24;;;;;;;;;;;19.30;51.20;;;;;;5076916;28;19913;-59
2022/11/07 05:49:49;;;;;;;;;;;19.30;51.20;;;;;;5082608;28;19988;-59
2022/11/07 05:52:15;;;;;;;;;;;19.30;51.40;;;;;;5063911;28;19927;-59
2022/11/07 05:54:40;;;;;;;;;;;19.30;51.40;;;;;;5082957;28;19927;-59
2022/11/07 05:57:06;;;;;;;;;;;19.30;51.40;;;;;;5080025;28;19919;-59
2022/11/07 05:59:31;;;;;;;;;;;19.30;51.50;;;;;;5080452;28;19912;-59
2022/11/07 06:01:56;;;;;;;;;;;19.30;51.50;;;;;;5062447;28;20073;-59
2022/11/07 06:04:22;;;;;;;;;;;19.20;51.50;;;;;;5060294;28;19920;-59
2022/11/07 06:06:47;;;;;;;;;;;19.20;51.50;;;;;;5081254;28;20284;-59
2022/11/07 06:09:13;;;;;;;;;;;19.20;51.60;;;;;;5068478;28;20337;-59
2022/11/07 06:11:38;;;;;;;;;;;19.20;51.60;;;;;;5082304;28;19920;-59
2022/11/07 06:14:04;;;;;;;;;;;19.20;51.50;;;;;;5063743;28;19920;-60
2022/11/07 06:16:29;;;;;;;;;;;19.20;51.50;;;;;;5069111;28;19916;-59
2022/11/07 06:18:54;;;;;;;;;;;19.20;51.60;;;;;;5062701;28;19916;-59
2022/11/07 06:21:20;;;;;;;;;;;19.20;51.70;;;;;;5070614;28;19912;-59
2022/11/07 06:23:45;;;;;;;;;;;19.20;51.60;;;;;;5069872;28;19920;-59
2022/11/07 06:26:11;;;;;;;;;;;19.20;51.60;;;;;;5082205;28;19916;-58
2022/11/07 06:28:36;;;;;;;;;;;19.20;51.80;;;;;;5080840;28;20062;-59
2022/11/07 06:31:02;;;;;;;;;;;19.10;51.80;;;;;;5069574;28;19943;-58
2022/11/07 06:33:28;;;;;;;;;;;19.20;51.80;;;;;;5046699;28;20338;-59
2022/11/07 06:35:54;;;;;;;;;;;19.10;51.70;;;;;;5082867;28;19916;-59
2022/11/07 06:38:20;;;;;;;;;;;19.10;51.70;;;;;;5049676;28;19918;-59
2022/11/07 06:40:45;;;;;;;;;;;19.10;51.90;;;;;;5081996;28;20471;-59
2022/11/07 06:43:11;;;;;;;;;;;19.10;51.80;;;;;;5086053;28;20325;-59
2022/11/07 06:45:37;;;;;;;;;;;19.10;51.90;;;;;;5053041;28;19958;-59
2022/11/07 06:48:03;;;;;;;;;;;19.10;51.90;;;;;;5068601;28;19931;-59
2022/11/07 06:50:28;;;;;;;;;;;19.10;51.90;;;;;;5084492;28;19924;-59
2022/11/07 06:52:53;;;;;;;;;;;19.10;52.00;;;;;;5067000;28;19912;-59
2022/11/07 06:55:20;;;;;;;;;;;19.10;52.00;;;;;;5086022;28;19916;-59
2022/11/07 06:57:46;;;;;;;;;;;19.10;51.90;;;;;;5063611;28;20372;-59
2022/11/07 07:00:12;;;;;;;;;;;19.10;52.00;;;;;;5085669;28;20189;-59
2022/11/07 07:02:37;;;;;;;;;;;19.00;51.90;;;;;;5069237;28;20057;-59
2022/11/07 07:05:03;;;;;;;;;;;19.00;51.90;;;;;;5067212;28;20261;-59
2022/11/07 07:07:28;;;;;;;;;;;19.00;52.00;;;;;;5085068;28;20327;-59
2022/11/07 07:09:54;;;;;;;;;;;19.00;52.00;;;;;;5084711;28;20379;-59
2022/11/07 07:12:19;;;;;;;;;;;19.00;52.00;;;;;;5086712;28;20375;-59
2022/11/07 07:14:45;;;;;;;;;;;19.00;52.00;;;;;;5067028;28;20232;-60
2022/11/07 07:17:11;;;;;;;;;;;19.10;52.80;;;;;;5062054;28;19943;-59
2022/11/07 07:19:36;;;;;;;;;;;19.10;52.80;;;;;;5078283;28;19965;-59
2022/11/07 07:22:02;;;;;;;;;;;19.00;52.20;;;;;;5080728;28;20370;-59
2022/11/07 07:24:27;;;;;;;;;;;19.10;52.10;;;;;;5082575;28;19912;-59
2022/11/07 07:26:53;;;;;;;;;;;19.00;52.20;;;;;;5082032;28;19927;-59
2022/11/07 07:29:18;;;;;;;;;;;19.00;52.20;;;;;;5080754;28;19928;-59
2022/11/07 07:31:44;;;;;;;;;;;19.00;52.20;;;;;;5065506;28;19951;-59
2022/11/07 07:34:10;;;;;;;;;;;19.00;52.20;;;;;;5084719;28;19931;-59
2022/11/07 07:36:35;;;;;;;;;;;19.00;52.30;;;;;;5063676;28;19912;-59
2022/11/07 07:39:00;;;;;;;;;;;19.00;52.30;;;;;;5065399;28;19934;-59
2022/11/07 07:41:26;;;;;;;;;;;19.00;52.30;;;;;;5084026;28;19912;-59
2022/11/07 07:43:51;;;;;;;;;;;19.00;52.30;;;;;;5083857;28;20016;-59
2022/11/07 07:46:18;;;;;;;;;;;19.00;52.30;;;;;;5084633;28;19916;-59
2022/11/07 07:48:43;;;;;;;;;;;19.00;52.40;;;;;;5065529;28;19916;-59
2022/11/07 07:51:09;;;;;;;;;;;19.00;52.40;;;;;;5065064;28;19920;-59
2022/11/07 07:53:34;;;;;;;;;;;19.00;52.50;;;;;;5082516;28;19916;-59
2022/11/07 07:56:01;;;;;;;;;;;19.00;52.70;;;;;;5062627;28;20295;-59
2022/11/07 07:58:27;;;;;;;;;;;19.00;52.80;;;;;;5051271;28;20431;-58
2022/11/07 08:00:52;;;;;;;;;;;19.00;52.90;;;;;;5083107;28;20003;-59
2022/11/07 08:03:18;;;;;;;;;;;19.00;53.10;;;;;;5067244;28;19923;-59
2022/11/07 08:05:43;;;;;;;;;;;19.00;53.30;;;;;;5082741;28;19912;-59
2022/11/07 08:08:09;;;;;;;;;;;18.90;53.30;;;;;;5063837;28;19920;-59
2022/11/07 08:10:34;;;;;;;;;;;19.00;53.50;;;;;;5078699;28;19920;-59
2022/11/07 08:13:00;;;;;;;;;;;18.90;53.30;;;;;;5082660;28;19916;-59
2022/11/07 08:15:25;;;;;;;;;;;18.90;53.40;;;;;;5083437;28;19920;-59
2022/11/07 08:17:51;;;;;;;;;;;18.90;53.40;;;;;;5060867;28;19964;-59
2022/11/07 08:20:18;;;;;;;;;;;18.90;53.50;;;;;;5065234;28;20323;-59
2022/11/07 08:22:44;;;;;;;;;;;18.90;53.60;;;;;;5063476;28;20002;-59
2022/11/07 08:25:09;;;;;;;;;;;18.90;53.70;;;;;;5081533;28;20007;-59
2022/11/07 08:27:35;;;;;;;;;;;18.90;53.70;;;;;;5072006;28;20306;-59
2022/11/07 08:30:01;;;;;;;;;;;18.90;53.60;;;;;;5061870;28;19920;-59
2022/11/07 08:32:26;;;;;;;;;;;18.90;53.40;;;;;;5058907;28;20012;-59
2022/11/07 08:34:52;;;;;;;;;;;18.90;53.50;;;;;;5050876;28;19920;-59
2022/11/07 08:37:17;;;;;;;;;;;18.90;53.50;;;;;;5067116;28;20055;-59
2022/11/07 08:39:43;;;;;;;;;;;18.90;53.50;;;;;;5084416;28;19931;-59
2022/11/07 08:42:08;;;;;;;;;;;19.00;53.50;;;;;;5083385;28;20001;-59
2022/11/07 08:44:35;;;;;;;;;;;19.00;53.50;;;;;;5064465;28;19920;-58
2022/11/07 08:47:01;;;;;;;;;;;19.00;53.40;;;;;;5083419;28;19916;-59
2022/11/07 08:49:26;;;;;;;;;;;19.00;53.40;;;;;;5046286;28;19967;-59
2022/11/07 08:51:52;;;;;;;;;;;19.00;53.40;;;;;;5083175;28;19951;-59
2022/11/07 08:54:17;;;;;;;;;;;19.00;53.50;;;;;;5080778;28;19916;-59
2022/11/07 08:56:43;;;;;;;;;;;19.00;53.60;;;;;;5082798;28;19916;-59
2022/11/07 08:59:09;;;;;;;;;;;19.00;53.60;;;;;;5079117;28;19916;-59
2022/11/07 09:01:35;;;;;;;;;;;19.00;53.60;;;;;;5065845;28;20011;-59
2022/11/07 09:04:00;;;;;;;;;;;19.00;53.50;;;;;;5066847;28;20046;-59
2022/11/07 09:06:26;;;;;;;;;;;19.00;53.70;;;;;;5063029;28;20912;-59
2022/11/07 09:08:51;;;;;;;;;;;19.10;53.80;;;;;;5082152;28;20399;-59
2022/11/07 09:11:17;;;;;;;;;;;19.40;53.50;;;;;;5061801;28;19920;-59
2022/11/07 09:13:43;;;;;;;;;;;19.70;52.90;;;;;;5046172;28;19923;-59
2022/11/07 09:16:08;;;;;;;;;;;20.00;52.20;;;;;;5060312;28;19916;-59
2022/11/07 09:18:34;;;;;;;;;;;20.40;51.70;;;;;;5080966;28;19912;-60
2022/11/07 09:20:59;;;;;;;;;;;20.70;51.10;;;;;;5056642;28;19920;-60
2022/11/07 09:23:25;;;;;;;;;;;20.80;50.70;;;;;;5078258;28;20552;-58
2022/11/07 09:37:08;;;;;;;;;;;21.00;49.90;;;;;;5088691;22;19928;-72
2022/11/07 09:39:34;;;;;;;;;;;21.60;50.10;;;;;;5061900;28;20003;-72
2022/11/07 09:42:05;;;;;;;;;;;21.70;50.10;;;;;;5079752;28;19916;-73
2022/11/07 09:44:49;;;;;;;;;;;21.70;50.00;;;;;;5062948;28;19992;-73
2022/11/07 09:47:18;;;;;;;;;;;21.70;50.10;;;;;;5082259;28;19927;-73
2022/11/07 09:49:45;;;;;;;;;;;21.70;50.10;;;;;;5084949;28;19920;-73
2022/11/07 09:52:13;;;;;;;;;;;21.70;50.10;;;;;;5068662;28;19912;-73
2022/11/07 09:54:40;;;;;;;;;;;21.70;50.20;;;;;;5064855;28;20334;-74
2022/11/07 09:57:05;;;;;;;;;;;21.70;50.30;;;;;;5061809;28;19928;-72
2022/11/07 09:59:49;;;;;;;;;;;21.80;50.20;;;;;;5080875;28;20188;-73
2022/11/07 10:02:15;;;;;;;;;;;21.70;50.10;;;;;;5083243;28;20006;-71
2022/11/07 10:04:41;;;;;;;;;;;21.70;50.20;;;;;;5067778;28;19999;-72
2022/11/07 10:07:09;;;;;;;;;;;21.70;50.20;;;;;;5063552;28;20145;-73
2022/11/07 10:09:45;;;;;;;;;;;21.80;50.20;;;;;;5067868;28;19912;-73
2022/11/07 10:12:20;;;;;;;;;;;21.80;50.20;;;;;;5066798;28;20327;-73
2022/11/07 10:15:00;;;;;;;;;;;21.80;50.00;;;;;;5084537;28;19935;-72
2022/11/07 10:17:29;;;;;;;;;;;21.90;50.10;;;;;;5064057;28;20395;-72
2022/11/07 10:20:13;;;;;;;;;;;22.00;50.10;;;;;;5087587;28;19999;-72
2022/11/07 10:22:40;;;;;;;;;;;22.00;50.00;;;;;;5065258;28;19917;-72
2022/11/07 10:25:20;;;;;;;;;;;22.10;49.90;;;;;;5069330;28;19919;-73
2022/11/07 10:28:16;;;;;;;;;;;22.10;49.90;;;;;;5037037;28;20051;-73
2022/11/07 10:30:50;;;;;;;;;;;22.00;49.90;;;;;;5048898;28;19989;-73
2022/11/07 10:33:22;;;;;;;;;;;22.00;50.00;;;;;;5044757;28;20011;-72
2022/11/07 10:35:49;;;;;;;;;;;22.00;50.10;;;;;;5048783;28;19912;-72
2022/11/07 10:38:20;;;;;;;;;;;22.00;50.10;;;;;;5030839;28;19913;-72
2022/11/07 10:40:46;;;;;;;;;;;22.10;50.00;;;;;;5032906;28;19921;-72
2022/11/07 10:43:13;;;;;;;;;;;22.20;50.00;;;;;;5048417;28;20234;-73
2022/11/07 10:45:38;;;;;;;;;;;22.20;49.90;;;;;;5047003;28;20447;-72
2022/11/07 10:48:04;;;;;;;;;;;22.20;49.80;;;;;;5053060;28;20045;-73
2022/11/07 10:50:30;;;;;;;;;;;22.20;49.90;;;;;;5051526;28;19913;-72
2022/11/07 10:52:59;;;;;;;;;;;22.10;49.90;;;;;;5033392;28;19913;-72
2022/11/07 10:55:25;;;;;;;;;;;22.20;49.90;;;;;;5044284;28;20031;-72
2022/11/07 10:57:58;;;;;;;;;;;22.20;49.70;;;;;;5027899;28;20027;-73
2022/11/07 11:00:27;;;;;;;;;;;22.30;49.70;;;;;;5049928;28;20376;-73
2022/11/07 11:02:53;;;;;;;;;;;22.30;49.60;;;;;;5031276;28;20429;-72
2022/11/07 11:05:23;;;;;;;;;;;22.30;49.70;;;;;;5033594;28;20531;-73
2022/11/07 11:07:49;;;;;;;;;;;22.30;49.70;;;;;;5035367;28;19952;-72
2022/11/07 11:10:18;;;;;;;;;;;22.30;49.80;;;;;;5052808;28;20343;-74
2022/11/07 11:12:45;;;;;;;;;;;22.30;49.80;;;;;;5026794;28;19917;-72
2022/11/07 11:15:18;;;;;;;;;;;22.30;49.70;;;;;;5031637;28;19986;-73
2022/11/07 11:17:43;;;;;;;;;;;22.40;49.70;;;;;;5033671;28;19993;-73
2022/11/07 11:20:26;;;;;;;;;;;22.40;49.60;;;;;;5034807;28;19913;-73
2022/11/07 11:22:52;;;;;;;;;;;22.40;49.70;;;;;;5032434;28;19944;-73
2022/11/07 11:25:18;;;;;;;;;;;22.40;49.80;;;;;;5033649;28;19917;-73
2022/11/07 11:27:44;;;;;;;;;;;22.40;49.80;;;;;;5020638;28;19940;-73
2022/11/07 11:30:10;;;;;;;;;;;22.40;49.80;;;;;;5030387;28;20368;-73
2022/11/07 11:32:55;;;;;;;;;;;22.40;49.60;;;;;;5050883;28;19913;-71
2022/11/07 11:35:29;;;;;;;;;;;22.50;49.60;;;;;;5028048;28;19913;-70
2022/11/07 11:37:57;;;;;;;;;;;22.60;49.50;;;;;;5048221;28;19967;-72
2022/11/07 11:40:23;;;;;;;;;;;22.60;49.30;;;;;;5033154;28;19998;-73
2022/11/07 11:43:09;;;;;;;;;;;22.70;49.30;;;;;;5032765;28;20026;-73
2022/11/07 11:45:54;;;;;;;;;;;22.70;49.10;;;;;;5030904;28;19921;-73
2022/11/07 11:48:26;;;;;;;;;;;22.80;49.10;;;;;;5048804;28;20433;-71
2022/11/07 11:51:05;;;;;;;;;;;22.70;49.10;;;;;;5032263;28;20288;-72
2022/11/07 11:53:31;;;;;;;;;;;22.80;49.10;;;;;;5039849;28;20088;-73
2022/11/07 11:56:00;;;;;;;;;;;22.80;49.10;;;;;;5031265;28;20038;-73
2022/11/07 11:58:29;;;;;;;;;;;22.80;49.10;;;;;;5031518;28;20026;-72
2022/11/07 12:01:10;;;;;;;;;;;22.80;49.00;;;;;;5050303;28;19920;-73
2022/11/07 12:03:48;;;;;;;;;;;22.90;49.00;;;;;;5030218;28;19991;-73
2022/11/07 12:06:14;;;;;;;;;;;22.80;48.90;;;;;;5034584;28;19921;-72
2022/11/07 12:08:42;;;;;;;;;;;22.80;49.00;;;;;;5047768;28;19917;-74
2022/11/07 12:11:26;;;;;;;;;;;22.70;49.10;;;;;;5049384;28;19913;-73
2022/11/07 12:13:58;;;;;;;;;;;22.60;49.30;;;;;;5032360;28;19920;-73
2022/11/07 12:16:35;;;;;;;;;;;22.70;49.40;;;;;;5050948;28;19952;-73
2022/11/07 12:19:01;;;;;;;;;;;22.70;49.40;;;;;;5049853;28;19917;-74
2022/11/07 12:21:33;;;;;;;;;;;22.70;49.40;;;;;;5048621;28;19913;-72
2022/11/07 12:24:05;;;;;;;;;;;22.70;49.30;;;;;;5030506;28;19921;-73
2022/11/07 12:26:40;;;;;;;;;;;22.70;49.30;;;;;;5037394;28;19964;-73
2022/11/07 12:29:17;;;;;;;;;;;22.70;49.40;;;;;;5048669;28;19916;-73
2022/11/07 12:31:49;;;;;;;;;;;22.60;49.50;;;;;;5042819;28;19913;-73
2022/11/07 12:34:17;;;;;;;;;;;22.60;49.60;;;;;;5024111;28;19927;-72
2022/11/07 12:36:56;;;;;;;;;;;22.60;50.30;;;;;;5046999;28;19917;-72
2022/11/07 12:39:32;;;;;;;;;;;22.60;49.60;;;;;;5032275;28;19923;-73
2022/11/07 12:42:00;;;;;;;;;;;22.70;49.60;;;;;;5029796;28;19932;-72
2022/11/07 12:44:31;;;;;;;;;;;22.70;50.10;;;;;;5027535;28;20015;-74
2022/11/07 12:46:57;;;;;;;;;;;22.70;49.50;;;;;;5045508;28;19980;-73
2022/11/07 12:49:25;;;;;;;;;;;22.70;49.50;;;;;;5049376;28;19966;-73
2022/11/07 12:52:02;;;;;;;;;;;22.70;49.50;;;;;;5048013;28;20004;-72
2022/11/07 12:54:31;;;;;;;;;;;22.70;49.50;;;;;;5028816;28;19919;-73
2022/11/07 12:56:56;;;;;;;;;;;22.70;49.50;;;;;;5028030;28;19939;-73
2022/11/07 12:59:22;;;;;;;;;;;22.70;49.40;;;;;;5014015;28;20015;-72
2022/11/07 13:01:51;;;;;;;;;;;22.70;49.40;;;;;;5027149;28;19924;-73
2022/11/07 13:04:35;;;;;;;;;;;22.70;49.50;;;;;;5031927;28;19913;-72
2022/11/07 13:07:18;;;;;;;;;;;22.70;49.60;;;;;;5040261;28;20063;-72
2022/11/07 13:09:55;;;;;;;;;;;22.70;49.50;;;;;;5027150;28;19959;-73
2022/11/07 13:12:20;;;;;;;;;;;22.70;49.60;;;;;;5030396;28;19913;-72
2022/11/07 13:14:46;;;;;;;;;;;22.70;49.60;;;;;;5049016;28;19924;-73
2022/11/07 13:17:29;;;;;;;;;;;22.70;49.70;;;;;;5029197;28;19932;-73
2022/11/07 13:20:13;;;;;;;;;;;22.70;49.70;;;;;;5031827;28;19919;-72
2022/11/07 13:22:39;;;;;;;;;;;22.70;49.70;;;;;;5048386;28;20395;-73
2022/11/07 13:25:06;;;;;;;;;;;22.80;49.60;;;;;;5050642;28;19963;-73
2022/11/07 13:27:32;;;;;;;;;;;22.80;49.40;;;;;;5044632;28;20016;-72
2022/11/07 13:30:08;;;;;;;;;;;22.90;49.40;;;;;;5032289;28;19916;-73
2022/11/07 13:32:36;;;;;;;;;;;23.00;49.30;;;;;;5031321;28;19921;-72
2022/11/07 13:35:05;;;;;;;;;;;23.00;49.30;;;;;;5011351;28;20328;-72
2022/11/07 13:37:31;;;;;;;;;;;22.90;49.30;;;;;;5044903;28;20309;-73
2022/11/07 13:40:00;;;;;;;;;;;22.80;49.40;;;;;;5051325;28;20429;-73
2022/11/07 13:42:25;;;;;;;;;;;22.90;49.60;;;;;;5030094;28;19917;-72
2022/11/07 13:44:52;;;;;;;;;;;22.90;49.60;;;;;;5047742;28;19929;-72
2022/11/07 13:47:20;;;;;;;;;;;22.90;49.50;;;;;;5028909;28;19912;-72
2022/11/07 13:49:45;;;;;;;;;;;23.00;49.40;;;;;;5032251;28;19917;-72
2022/11/07 13:52:33;;;;;;;;;;;23.00;49.30;;;;;;5046659;28;19920;-73
2022/11/07 13:55:10;;;;;;;;;;;23.00;49.30;;;;;;5023935;28;19981;-72
2022/11/07 13:57:36;;;;;;;;;;;23.00;49.40;;;;;;5043992;28;20284;-73
2022/11/07 14:00:09;;;;;;;;;;;22.90;50.00;;;;;;5034045;28;19968;-73
2022/11/07 14:02:35;;;;;;;;;;;22.90;49.50;;;;;;5025626;28;19936;-73
2022/11/07 14:05:04;;;;;;;;;;;22.90;49.50;;;;;;5045297;28;20360;-72
2022/11/07 14:07:39;;;;;;;;;;;22.90;49.50;;;;;;5010631;28;20372;-73
2022/11/07 14:10:25;;;;;;;;;;;22.90;49.60;;;;;;5032675;28;20323;-73
2022/11/07 14:12:52;;;;;;;;;;;22.90;49.60;;;;;;5038889;28;19967;-73
2022/11/07 14:15:18;;;;;;;;;;;22.90;49.60;;;;;;5049014;28;20372;-73
2022/11/07 14:17:44;;;;;;;;;;;23.00;49.70;;;;;;5048130;28;19962;-72
2022/11/07 14:20:18;;;;;;;;;;;23.00;49.60;;;;;;5050212;28;19921;-73
2022/11/07 14:22:54;;;;;;;;;;;23.00;49.60;;;;;;5048961;28;20039;-73
2022/11/07 14:25:21;;;;;;;;;;;23.00;49.60;;;;;;5022405;28;19912;-73
2022/11/07 14:27:47;;;;;;;;;;;23.00;49.70;;;;;;5033748;28;19916;-72
2022/11/07 14:30:16;;;;;;;;;;;23.00;49.70;;;;;;5052455;28;19924;-72
2022/11/07 14:32:51;;;;;;;;;;;23.00;49.80;;;;;;5049827;28;19920;-72
2022/11/07 14:35:17;;;;;;;;;;;23.00;49.80;;;;;;5044510;28;19919;-73
2022/11/07 14:37:43;;;;;;;;;;;23.00;49.80;;;;;;5035142;28;19917;-73
2022/11/07 14:40:09;;;;;;;;;;;23.00;49.80;;;;;;5054064;28;19919;-73
2022/11/07 14:42:34;;;;;;;;;;;22.90;49.90;;;;;;5033625;28;20066;-73